sensor_id;sensor_type;location;lat;lon;timestamp;P1;durP1;ratioP1;P2;durP2;ratioP2
31596;SDS011;74162;50.912;6.918;2024-03-07T00:00:11;93.30;;;72.53;;
31596;SDS011;74162;50.912;6.918;2024-03-07T00:00:44;92.18;;;73.68;;
31596;SDS011;74162;50.912;6.918;2024-03-07T00:01:17;100.60;;;77.47;;
31596;SDS011;74162;50.912;6.918;2024-03-07T00:01:48;93.63;;;74.05;;
31596;SDS011;74162;50.912;6.918;2024-03-07T00:02:20;94.63;;;73.80;;
31596;SDS011;74162;50.912;6.918;2024-03-07T00:02:52;97.25;;;76.45;;
31596;SDS011;74162;50.912;6.918;2024-03-07T00:03:25;106.07;;;80.50;;
31596;SDS011;74162;50.912;6.918;2024-03-07T00:03:56;98.25;;;74.82;;
31596;SDS011;74162;50.912;6.918;2024-03-07T00:04:28;94.40;;;75.15;;
31596;SDS011;74162;50.912;6.918;2024-03-07T00:05:00;95.82;;;75.07;;
31596;SDS011;74162;50.912;6.918;2024-03-07T00:05:32;100.25;;;78.22;;
31596;SDS011;74162;50.912;6.918;2024-03-07T00:06:04;98.20;;;76.95;;
31596;SDS011;74162;50.912;6.918;2024-03-07T00:06:37;97.80;;;75.90;;
31596;SDS011;74162;50.912;6.918;2024-03-07T00:07:08;101.15;;;77.90;;
31596;SDS011;74162;50.912;6.918;2024-03-07T00:07:40;96.78;;;75.72;;
31596;SDS011;74162;50.912;6.918;2024-03-07T00:08:13;98.05;;;74.97;;
31596;SDS011;74162;50.912;6.918;2024-03-07T00:08:45;103.30;;;80.57;;
31596;SDS011;74162;50.912;6.918;2024-03-07T00:09:17;103.93;;;77.45;;
31596;SDS011;74162;50.912;6.918;2024-03-07T00:09:49;100.07;;;78.82;;
31596;SDS011;74162;50.912;6.918;2024-03-07T00:10:21;98.68;;;76.20;;
31596;SDS011;74162;50.912;6.918;2024-03-07T00:10:53;99.72;;;79.25;;
31596;SDS011;74162;50.912;6.918;2024-03-07T00:11:25;102.45;;;79.32;;
31596;SDS011;74162;50.912;6.918;2024-03-07T00:11:57;107.53;;;81.00;;
31596;SDS011;74162;50.912;6.918;2024-03-07T00:12:30;101.97;;;79.13;;
31596;SDS011;74162;50.912;6.918;2024-03-07T00:13:02;104.03;;;81.03;;
31596;SDS011;74162;50.912;6.918;2024-03-07T00:13:34;104.65;;;81.18;;
31596;SDS011;74162;50.912;6.918;2024-03-07T00:14:06;99.75;;;78.05;;
31596;SDS011;74162;50.912;6.918;2024-03-07T00:14:38;106.82;;;81.35;;
31596;SDS011;74162;50.912;6.918;2024-03-07T00:15:11;101.35;;;80.28;;
31596;SDS011;74162;50.912;6.918;2024-03-07T00:15:44;101.07;;;78.70;;
31596;SDS011;74162;50.912;6.918;2024-03-07T00:16:16;100.95;;;78.10;;
31596;SDS011;74162;50.912;6.918;2024-03-07T00:16:48;99.43;;;77.80;;
31596;SDS011;74162;50.912;6.918;2024-03-07T00:19:06;98.00;;;76.53;;
31596;SDS011;74162;50.912;6.918;2024-03-07T00:19:38;98.38;;;76.65;;
31596;SDS011;74162;50.912;6.918;2024-03-07T00:20:10;97.10;;;76.65;;
31596;SDS011;74162;50.912;6.918;2024-03-07T00:20:42;101.05;;;78.57;;
31596;SDS011;74162;50.912;6.918;2024-03-07T00:21:14;101.68;;;78.03;;
31596;SDS011;74162;50.912;6.918;2024-03-07T00:21:46;97.22;;;76.88;;
31596;SDS011;74162;50.912;6.918;2024-03-07T00:22:18;98.82;;;77.38;;
31596;SDS011;74162;50.912;6.918;2024-03-07T00:22:50;101.10;;;79.00;;
31596;SDS011;74162;50.912;6.918;2024-03-07T00:23:22;103.30;;;83.63;;
31596;SDS011;74162;50.912;6.918;2024-03-07T00:23:54;99.50;;;81.03;;
31596;SDS011;74162;50.912;6.918;2024-03-07T00:24:26;97.95;;;79.97;;
31596;SDS011;74162;50.912;6.918;2024-03-07T00:24:57;98.38;;;79.85;;
31596;SDS011;74162;50.912;6.918;2024-03-07T00:25:29;103.55;;;82.85;;
31596;SDS011;74162;50.912;6.918;2024-03-07T00:26:01;108.13;;;86.68;;
31596;SDS011;74162;50.912;6.918;2024-03-07T00:26:34;108.32;;;84.90;;
31596;SDS011;74162;50.912;6.918;2024-03-07T00:27:06;104.32;;;83.00;;
31596;SDS011;74162;50.912;6.918;2024-03-07T00:27:39;100.35;;;81.95;;
31596;SDS011;74162;50.912;6.918;2024-03-07T00:28:11;105.95;;;83.07;;
31596;SDS011;74162;50.912;6.918;2024-03-07T00:28:43;106.72;;;81.68;;
31596;SDS011;74162;50.912;6.918;2024-03-07T00:29:15;98.00;;;78.68;;
31596;SDS011;74162;50.912;6.918;2024-03-07T00:29:47;101.47;;;79.72;;
31596;SDS011;74162;50.912;6.918;2024-03-07T00:30:19;103.95;;;79.82;;
31596;SDS011;74162;50.912;6.918;2024-03-07T00:30:51;104.43;;;81.90;;
31596;SDS011;74162;50.912;6.918;2024-03-07T00:31:23;104.80;;;80.55;;
31596;SDS011;74162;50.912;6.918;2024-03-07T00:31:55;102.93;;;79.35;;
31596;SDS011;74162;50.912;6.918;2024-03-07T00:32:26;103.20;;;78.57;;
31596;SDS011;74162;50.912;6.918;2024-03-07T00:32:58;107.50;;;80.57;;
31596;SDS011;74162;50.912;6.918;2024-03-07T00:33:31;105.18;;;81.70;;
31596;SDS011;74162;50.912;6.918;2024-03-07T00:34:22;110.05;;;82.05;;
31596;SDS011;74162;50.912;6.918;2024-03-07T00:34:56;105.28;;;80.43;;
31596;SDS011;74162;50.912;6.918;2024-03-07T00:35:28;105.93;;;82.40;;
31596;SDS011;74162;50.912;6.918;2024-03-07T00:36:00;108.68;;;83.35;;
31596;SDS011;74162;50.912;6.918;2024-03-07T00:36:33;111.75;;;85.75;;
31596;SDS011;74162;50.912;6.918;2024-03-07T00:37:04;112.32;;;85.60;;
31596;SDS011;74162;50.912;6.918;2024-03-07T00:37:37;111.32;;;85.85;;
31596;SDS011;74162;50.912;6.918;2024-03-07T00:38:09;117.00;;;88.45;;
31596;SDS011;74162;50.912;6.918;2024-03-07T00:38:41;111.82;;;84.75;;
31596;SDS011;74162;50.912;6.918;2024-03-07T00:39:13;108.97;;;82.80;;
31596;SDS011;74162;50.912;6.918;2024-03-07T00:39:44;109.95;;;84.10;;
31596;SDS011;74162;50.912;6.918;2024-03-07T00:40:16;109.13;;;83.38;;
31596;SDS011;74162;50.912;6.918;2024-03-07T00:40:48;111.78;;;83.25;;
31596;SDS011;74162;50.912;6.918;2024-03-07T00:41:20;107.00;;;80.88;;
31596;SDS011;74162;50.912;6.918;2024-03-07T00:41:52;107.30;;;81.43;;
31596;SDS011;74162;50.912;6.918;2024-03-07T00:42:24;105.03;;;79.97;;
31596;SDS011;74162;50.912;6.918;2024-03-07T00:42:58;102.97;;;78.63;;
31596;SDS011;74162;50.912;6.918;2024-03-07T00:43:30;106.70;;;80.75;;
31596;SDS011;74162;50.912;6.918;2024-03-07T00:44:02;102.85;;;81.35;;
31596;SDS011;74162;50.912;6.918;2024-03-07T00:44:35;105.50;;;81.53;;
31596;SDS011;74162;50.912;6.918;2024-03-07T00:45:07;103.93;;;80.90;;
31596;SDS011;74162;50.912;6.918;2024-03-07T00:45:40;107.50;;;83.85;;
31596;SDS011;74162;50.912;6.918;2024-03-07T00:46:12;105.03;;;83.13;;
31596;SDS011;74162;50.912;6.918;2024-03-07T00:46:44;107.90;;;83.30;;
31596;SDS011;74162;50.912;6.918;2024-03-07T00:47:16;105.78;;;82.15;;
31596;SDS011;74162;50.912;6.918;2024-03-07T00:47:48;108.50;;;85.43;;
31596;SDS011;74162;50.912;6.918;2024-03-07T00:48:20;108.85;;;84.70;;
31596;SDS011;74162;50.912;6.918;2024-03-07T00:48:52;104.72;;;83.53;;
31596;SDS011;74162;50.912;6.918;2024-03-07T00:49:24;114.88;;;85.97;;
31596;SDS011;74162;50.912;6.918;2024-03-07T00:49:56;112.57;;;85.38;;
31596;SDS011;74162;50.912;6.918;2024-03-07T00:50:28;111.30;;;84.85;;
31596;SDS011;74162;50.912;6.918;2024-03-07T00:51:00;107.60;;;85.03;;
31596;SDS011;74162;50.912;6.918;2024-03-07T00:51:32;113.47;;;85.05;;
31596;SDS011;74162;50.912;6.918;2024-03-07T00:52:04;111.45;;;86.32;;
31596;SDS011;74162;50.912;6.918;2024-03-07T00:52:36;113.47;;;86.15;;
31596;SDS011;74162;50.912;6.918;2024-03-07T00:53:08;111.10;;;85.13;;
31596;SDS011;74162;50.912;6.918;2024-03-07T00:53:40;116.50;;;86.80;;
31596;SDS011;74162;50.912;6.918;2024-03-07T00:54:12;108.43;;;83.93;;
31596;SDS011;74162;50.912;6.918;2024-03-07T00:54:44;107.20;;;83.55;;
31596;SDS011;74162;50.912;6.918;2024-03-07T00:55:16;117.57;;;87.70;;
31596;SDS011;74162;50.912;6.918;2024-03-07T00:55:48;113.53;;;86.53;;
31596;SDS011;74162;50.912;6.918;2024-03-07T00:56:20;110.20;;;85.35;;
31596;SDS011;74162;50.912;6.918;2024-03-07T00:56:52;111.75;;;86.78;;
31596;SDS011;74162;50.912;6.918;2024-03-07T00:57:24;120.05;;;89.82;;
31596;SDS011;74162;50.912;6.918;2024-03-07T00:57:56;117.82;;;89.72;;
31596;SDS011;74162;50.912;6.918;2024-03-07T00:58:30;119.07;;;88.60;;
31596;SDS011;74162;50.912;6.918;2024-03-07T00:59:01;123.78;;;91.68;;
31596;SDS011;74162;50.912;6.918;2024-03-07T00:59:33;120.18;;;90.20;;
31596;SDS011;74162;50.912;6.918;2024-03-07T01:00:06;119.97;;;89.78;;
31596;SDS011;74162;50.912;6.918;2024-03-07T01:00:39;125.90;;;93.10;;
31596;SDS011;74162;50.912;6.918;2024-03-07T01:01:11;117.97;;;88.07;;
31596;SDS011;74162;50.912;6.918;2024-03-07T01:01:43;118.95;;;90.85;;
31596;SDS011;74162;50.912;6.918;2024-03-07T01:02:15;119.78;;;89.97;;
31596;SDS011;74162;50.912;6.918;2024-03-07T01:02:47;116.72;;;88.68;;
31596;SDS011;74162;50.912;6.918;2024-03-07T01:03:19;113.55;;;86.45;;
31596;SDS011;74162;50.912;6.918;2024-03-07T01:03:51;118.28;;;91.58;;
31596;SDS011;74162;50.912;6.918;2024-03-07T01:04:23;116.03;;;88.68;;
31596;SDS011;74162;50.912;6.918;2024-03-07T01:04:55;114.45;;;87.57;;
31596;SDS011;74162;50.912;6.918;2024-03-07T01:05:27;114.85;;;87.97;;
31596;SDS011;74162;50.912;6.918;2024-03-07T01:05:59;117.45;;;89.35;;
31596;SDS011;74162;50.912;6.918;2024-03-07T01:06:31;118.38;;;88.86;;
31596;SDS011;74162;50.912;6.918;2024-03-07T01:07:03;118.93;;;89.20;;
31596;SDS011;74162;50.912;6.918;2024-03-07T01:07:35;120.13;;;89.95;;
31596;SDS011;74162;50.912;6.918;2024-03-07T01:08:07;120.88;;;90.97;;
31596;SDS011;74162;50.912;6.918;2024-03-07T01:08:39;121.12;;;89.62;;
31596;SDS011;74162;50.912;6.918;2024-03-07T01:09:11;119.80;;;88.32;;
31596;SDS011;74162;50.912;6.918;2024-03-07T01:09:43;118.55;;;88.28;;
31596;SDS011;74162;50.912;6.918;2024-03-07T01:10:15;116.18;;;89.07;;
31596;SDS011;74162;50.912;6.918;2024-03-07T01:10:47;115.07;;;87.70;;
31596;SDS011;74162;50.912;6.918;2024-03-07T01:11:19;114.85;;;89.05;;
31596;SDS011;74162;50.912;6.918;2024-03-07T01:11:51;116.68;;;87.50;;
31596;SDS011;74162;50.912;6.918;2024-03-07T01:12:23;115.45;;;87.38;;
31596;SDS011;74162;50.912;6.918;2024-03-07T01:12:55;112.05;;;86.47;;
31596;SDS011;74162;50.912;6.918;2024-03-07T01:13:28;109.93;;;85.53;;
31596;SDS011;74162;50.912;6.918;2024-03-07T01:14:00;110.95;;;85.57;;
31596;SDS011;74162;50.912;6.918;2024-03-07T01:14:32;112.90;;;86.43;;
31596;SDS011;74162;50.912;6.918;2024-03-07T01:15:04;112.35;;;86.63;;
31596;SDS011;74162;50.912;6.918;2024-03-07T01:15:37;111.03;;;84.30;;
31596;SDS011;74162;50.912;6.918;2024-03-07T01:16:09;113.43;;;84.25;;
31596;SDS011;74162;50.912;6.918;2024-03-07T01:16:41;116.22;;;86.38;;
31596;SDS011;74162;50.912;6.918;2024-03-07T01:17:13;112.68;;;86.38;;
31596;SDS011;74162;50.912;6.918;2024-03-07T01:17:45;113.18;;;85.78;;
31596;SDS011;74162;50.912;6.918;2024-03-07T01:18:17;114.95;;;84.85;;
31596;SDS011;74162;50.912;6.918;2024-03-07T01:18:49;110.18;;;82.47;;
31596;SDS011;74162;50.912;6.918;2024-03-07T01:19:21;110.70;;;84.32;;
31596;SDS011;74162;50.912;6.918;2024-03-07T01:19:53;108.32;;;84.30;;
31596;SDS011;74162;50.912;6.918;2024-03-07T01:20:25;109.53;;;83.80;;
31596;SDS011;74162;50.912;6.918;2024-03-07T01:20:56;112.18;;;84.65;;
31596;SDS011;74162;50.912;6.918;2024-03-07T01:21:28;109.85;;;83.88;;
31596;SDS011;74162;50.912;6.918;2024-03-07T01:22:00;110.85;;;84.30;;
31596;SDS011;74162;50.912;6.918;2024-03-07T01:22:32;115.60;;;87.05;;
31596;SDS011;74162;50.912;6.918;2024-03-07T01:23:04;120.97;;;88.60;;
31596;SDS011;74162;50.912;6.918;2024-03-07T01:23:36;114.63;;;86.78;;
31596;SDS011;74162;50.912;6.918;2024-03-07T01:24:08;116.00;;;87.72;;
31596;SDS011;74162;50.912;6.918;2024-03-07T01:24:40;120.47;;;91.03;;
31596;SDS011;74162;50.912;6.918;2024-03-07T01:25:12;119.55;;;88.93;;
31596;SDS011;74162;50.912;6.918;2024-03-07T01:25:44;122.53;;;89.38;;
31596;SDS011;74162;50.912;6.918;2024-03-07T01:26:16;123.65;;;91.25;;
31596;SDS011;74162;50.912;6.918;2024-03-07T01:26:48;116.25;;;88.68;;
31596;SDS011;74162;50.912;6.918;2024-03-07T01:27:20;116.47;;;89.20;;
31596;SDS011;74162;50.912;6.918;2024-03-07T01:27:52;118.85;;;88.43;;
31596;SDS011;74162;50.912;6.918;2024-03-07T01:48:15;116.13;;;87.57;;
31596;SDS011;74162;50.912;6.918;2024-03-07T01:48:58;115.07;;;86.88;;
31596;SDS011;74162;50.912;6.918;2024-03-07T01:49:31;118.05;;;88.32;;
31596;SDS011;74162;50.912;6.918;2024-03-07T01:50:04;114.53;;;87.45;;
31596;SDS011;74162;50.912;6.918;2024-03-07T01:50:38;113.57;;;87.32;;
31596;SDS011;74162;50.912;6.918;2024-03-07T01:51:11;113.72;;;87.97;;
31596;SDS011;74162;50.912;6.918;2024-03-07T02:04:45;114.72;;;83.35;;
31596;SDS011;74162;50.912;6.918;2024-03-07T02:09:31;111.32;;;81.07;;
31596;SDS011;74162;50.912;6.918;2024-03-07T02:10:04;111.75;;;81.75;;
31596;SDS011;74162;50.912;6.918;2024-03-07T02:10:37;115.10;;;82.88;;
31596;SDS011;74162;50.912;6.918;2024-03-07T02:11:09;113.57;;;83.03;;
31596;SDS011;74162;50.912;6.918;2024-03-07T02:11:41;110.88;;;81.03;;
31596;SDS011;74162;50.912;6.918;2024-03-07T02:12:13;116.68;;;82.85;;
31596;SDS011;74162;50.912;6.918;2024-03-07T02:12:45;110.28;;;82.32;;
31596;SDS011;74162;50.912;6.918;2024-03-07T02:13:17;103.40;;;79.22;;
31596;SDS011;74162;50.912;6.918;2024-03-07T02:13:49;99.88;;;78.68;;
31596;SDS011;74162;50.912;6.918;2024-03-07T02:14:21;101.00;;;79.07;;
31596;SDS011;74162;50.912;6.918;2024-03-07T02:14:53;98.53;;;78.20;;
31596;SDS011;74162;50.912;6.918;2024-03-07T02:15:25;100.88;;;80.78;;
31596;SDS011;74162;50.912;6.918;2024-03-07T02:15:57;106.50;;;82.95;;
31596;SDS011;74162;50.912;6.918;2024-03-07T02:16:29;109.72;;;83.07;;
31596;SDS011;74162;50.912;6.918;2024-03-07T02:17:02;107.95;;;84.70;;
31596;SDS011;74162;50.912;6.918;2024-03-07T02:17:34;111.50;;;85.32;;
31596;SDS011;74162;50.912;6.918;2024-03-07T02:18:07;107.65;;;84.20;;
31596;SDS011;74162;50.912;6.918;2024-03-07T02:18:39;109.03;;;85.32;;
31596;SDS011;74162;50.912;6.918;2024-03-07T02:19:13;109.20;;;84.40;;
31596;SDS011;74162;50.912;6.918;2024-03-07T02:19:47;109.68;;;83.50;;
31596;SDS011;74162;50.912;6.918;2024-03-07T02:20:19;106.65;;;80.45;;
31596;SDS011;74162;50.912;6.918;2024-03-07T02:20:53;105.18;;;81.43;;
31596;SDS011;74162;50.912;6.918;2024-03-07T02:21:25;102.65;;;78.53;;
31596;SDS011;74162;50.912;6.918;2024-03-07T02:21:57;106.18;;;80.55;;
31596;SDS011;74162;50.912;6.918;2024-03-07T02:22:29;103.90;;;77.50;;
31596;SDS011;74162;50.912;6.918;2024-03-07T02:23:01;103.43;;;77.07;;
31596;SDS011;74162;50.912;6.918;2024-03-07T02:23:33;109.13;;;78.13;;
31596;SDS011;74162;50.912;6.918;2024-03-07T02:24:05;110.78;;;81.18;;
31596;SDS011;74162;50.912;6.918;2024-03-07T02:24:37;109.75;;;79.05;;
31596;SDS011;74162;50.912;6.918;2024-03-07T02:25:09;108.57;;;79.35;;
31596;SDS011;74162;50.912;6.918;2024-03-07T02:25:41;113.43;;;80.68;;
31596;SDS011;74162;50.912;6.918;2024-03-07T02:26:13;115.32;;;83.70;;
31596;SDS011;74162;50.912;6.918;2024-03-07T02:26:45;115.15;;;82.95;;
31596;SDS011;74162;50.912;6.918;2024-03-07T02:27:17;116.38;;;83.20;;
31596;SDS011;74162;50.912;6.918;2024-03-07T02:27:49;111.28;;;80.25;;
31596;SDS011;74162;50.912;6.918;2024-03-07T02:28:21;113.95;;;80.40;;
31596;SDS011;74162;50.912;6.918;2024-03-07T02:28:53;109.75;;;80.55;;
31596;SDS011;74162;50.912;6.918;2024-03-07T02:29:25;107.57;;;78.95;;
31596;SDS011;74162;50.912;6.918;2024-03-07T02:29:57;110.40;;;80.32;;
31596;SDS011;74162;50.912;6.918;2024-03-07T02:30:29;116.45;;;82.88;;
31596;SDS011;74162;50.912;6.918;2024-03-07T02:31:01;109.55;;;78.90;;
31596;SDS011;74162;50.912;6.918;2024-03-07T02:31:34;106.85;;;80.50;;
31596;SDS011;74162;50.912;6.918;2024-03-07T02:32:06;112.00;;;81.43;;
31596;SDS011;74162;50.912;6.918;2024-03-07T02:32:38;115.20;;;82.47;;
31596;SDS011;74162;50.912;6.918;2024-03-07T02:33:10;110.43;;;85.25;;
31596;SDS011;74162;50.912;6.918;2024-03-07T02:33:42;107.05;;;80.25;;
31596;SDS011;74162;50.912;6.918;2024-03-07T02:34:14;103.78;;;80.07;;
31596;SDS011;74162;50.912;6.918;2024-03-07T02:34:47;110.90;;;82.93;;
31596;SDS011;74162;50.912;6.918;2024-03-07T02:35:20;112.53;;;84.20;;
31596;SDS011;74162;50.912;6.918;2024-03-07T02:35:55;105.03;;;81.40;;
31596;SDS011;74162;50.912;6.918;2024-03-07T02:36:28;107.30;;;82.32;;
31596;SDS011;74162;50.912;6.918;2024-03-07T02:37:02;105.85;;;81.53;;
31596;SDS011;74162;50.912;6.918;2024-03-07T02:37:34;105.88;;;79.72;;
31596;SDS011;74162;50.912;6.918;2024-03-07T03:10:53;103.13;;;82.10;;
31596;SDS011;74162;50.912;6.918;2024-03-07T03:11:25;102.30;;;80.82;;
31596;SDS011;74162;50.912;6.918;2024-03-07T03:11:57;101.80;;;79.53;;
31596;SDS011;74162;50.912;6.918;2024-03-07T03:12:29;98.10;;;78.50;;
31596;SDS011;74162;50.912;6.918;2024-03-07T03:13:01;101.78;;;79.25;;
31596;SDS011;74162;50.912;6.918;2024-03-07T03:13:33;106.28;;;82.88;;
31596;SDS011;74162;50.912;6.918;2024-03-07T03:14:05;104.35;;;81.63;;
31596;SDS011;74162;50.912;6.918;2024-03-07T03:14:37;104.88;;;80.00;;
31596;SDS011;74162;50.912;6.918;2024-03-07T03:15:09;101.70;;;77.60;;
31596;SDS011;74162;50.912;6.918;2024-03-07T03:15:41;102.45;;;76.82;;
31596;SDS011;74162;50.912;6.918;2024-03-07T03:16:13;101.53;;;78.00;;
31596;SDS011;74162;50.912;6.918;2024-03-07T03:16:45;110.35;;;79.43;;
31596;SDS011;74162;50.912;6.918;2024-03-07T03:17:19;110.25;;;79.00;;
31596;SDS011;74162;50.912;6.918;2024-03-07T03:17:51;105.93;;;76.50;;
31596;SDS011;74162;50.912;6.918;2024-03-07T03:18:23;105.55;;;76.82;;
31596;SDS011;74162;50.912;6.918;2024-03-07T03:18:55;106.35;;;76.00;;
31596;SDS011;74162;50.912;6.918;2024-03-07T03:19:27;105.10;;;76.05;;
31596;SDS011;74162;50.912;6.918;2024-03-07T03:19:59;106.38;;;76.03;;
31596;SDS011;74162;50.912;6.918;2024-03-07T03:20:31;113.72;;;80.03;;
31596;SDS011;74162;50.912;6.918;2024-03-07T03:21:03;105.20;;;76.93;;
31596;SDS011;74162;50.912;6.918;2024-03-07T03:21:35;106.43;;;77.00;;
31596;SDS011;74162;50.912;6.918;2024-03-07T03:22:07;108.13;;;78.50;;
31596;SDS011;74162;50.912;6.918;2024-03-07T03:22:39;107.40;;;77.93;;
31596;SDS011;74162;50.912;6.918;2024-03-07T03:23:11;108.65;;;78.47;;
31596;SDS011;74162;50.912;6.918;2024-03-07T03:23:51;110.47;;;79.85;;
31596;SDS011;74162;50.912;6.918;2024-03-07T03:24:23;107.97;;;79.93;;
31596;SDS011;74162;50.912;6.918;2024-03-07T03:24:55;104.20;;;78.07;;
31596;SDS011;74162;50.912;6.918;2024-03-07T03:25:27;102.80;;;77.78;;
31596;SDS011;74162;50.912;6.918;2024-03-07T03:26:00;102.22;;;77.80;;
31596;SDS011;74162;50.912;6.918;2024-03-07T03:26:33;105.13;;;78.63;;
31596;SDS011;74162;50.912;6.918;2024-03-07T03:27:05;105.05;;;80.65;;
31596;SDS011;74162;50.912;6.918;2024-03-07T03:27:37;101.88;;;78.63;;
31596;SDS011;74162;50.912;6.918;2024-03-07T03:28:09;101.10;;;77.75;;
31596;SDS011;74162;50.912;6.918;2024-03-07T03:28:41;107.68;;;79.55;;
31596;SDS011;74162;50.912;6.918;2024-03-07T03:29:13;100.32;;;76.60;;
31596;SDS011;74162;50.912;6.918;2024-03-07T03:29:45;102.60;;;77.47;;
31596;SDS011;74162;50.912;6.918;2024-03-07T03:30:17;104.32;;;76.75;;
31596;SDS011;74162;50.912;6.918;2024-03-07T03:30:49;106.75;;;78.13;;
31596;SDS011;74162;50.912;6.918;2024-03-07T03:31:21;105.93;;;76.80;;
31596;SDS011;74162;50.912;6.918;2024-03-07T03:31:54;103.10;;;75.47;;
31596;SDS011;74162;50.912;6.918;2024-03-07T03:32:26;101.93;;;75.85;;
31596;SDS011;74162;50.912;6.918;2024-03-07T03:32:58;104.22;;;75.47;;
31596;SDS011;74162;50.912;6.918;2024-03-07T03:33:30;103.72;;;77.00;;
31596;SDS011;74162;50.912;6.918;2024-03-07T03:34:02;102.88;;;74.45;;
31596;SDS011;74162;50.912;6.918;2024-03-07T03:34:34;101.75;;;75.03;;
31596;SDS011;74162;50.912;6.918;2024-03-07T03:35:06;106.05;;;76.05;;
31596;SDS011;74162;50.912;6.918;2024-03-07T03:35:39;101.07;;;76.28;;
31596;SDS011;74162;50.912;6.918;2024-03-07T03:36:12;104.30;;;76.15;;
31596;SDS011;74162;50.912;6.918;2024-03-07T03:36:45;100.80;;;74.07;;
31596;SDS011;74162;50.912;6.918;2024-03-07T03:37:17;102.38;;;75.57;;
31596;SDS011;74162;50.912;6.918;2024-03-07T03:37:48;108.20;;;79.05;;
31596;SDS011;74162;50.912;6.918;2024-03-07T03:38:21;105.78;;;78.38;;
31596;SDS011;74162;50.912;6.918;2024-03-07T03:38:53;106.84;;;79.42;;
31596;SDS011;74162;50.912;6.918;2024-03-07T03:39:24;109.68;;;79.78;;
31596;SDS011;74162;50.912;6.918;2024-03-07T03:39:56;106.57;;;78.93;;
31596;SDS011;74162;50.912;6.918;2024-03-07T03:40:28;108.63;;;82.65;;
31596;SDS011;74162;50.912;6.918;2024-03-07T03:41:02;106.45;;;80.80;;
31596;SDS011;74162;50.912;6.918;2024-03-07T03:41:34;112.25;;;82.88;;
31596;SDS011;74162;50.912;6.918;2024-03-07T03:42:06;111.30;;;82.78;;
31596;SDS011;74162;50.912;6.918;2024-03-07T03:42:38;112.72;;;84.93;;
31596;SDS011;74162;50.912;6.918;2024-03-07T03:43:11;106.55;;;80.97;;
31596;SDS011;74162;50.912;6.918;2024-03-07T03:43:43;104.93;;;80.57;;
31596;SDS011;74162;50.912;6.918;2024-03-07T03:44:15;110.10;;;83.22;;
31596;SDS011;74162;50.912;6.918;2024-03-07T03:44:47;110.25;;;83.03;;
31596;SDS011;74162;50.912;6.918;2024-03-07T03:45:19;106.43;;;80.97;;
31596;SDS011;74162;50.912;6.918;2024-03-07T03:45:51;103.35;;;81.32;;
31596;SDS011;74162;50.912;6.918;2024-03-07T03:46:23;104.18;;;81.25;;
31596;SDS011;74162;50.912;6.918;2024-03-07T03:46:55;104.60;;;80.47;;
31596;SDS011;74162;50.912;6.918;2024-03-07T03:47:27;101.85;;;79.70;;
31596;SDS011;74162;50.912;6.918;2024-03-07T03:47:59;101.82;;;76.45;;
31596;SDS011;74162;50.912;6.918;2024-03-07T03:48:31;101.32;;;76.22;;
31596;SDS011;74162;50.912;6.918;2024-03-07T03:49:03;103.63;;;78.32;;
31596;SDS011;74162;50.912;6.918;2024-03-07T03:49:35;103.00;;;78.05;;
31596;SDS011;74162;50.912;6.918;2024-03-07T03:50:09;101.78;;;75.18;;
31596;SDS011;74162;50.912;6.918;2024-03-07T03:50:42;103.20;;;74.38;;
31596;SDS011;74162;50.912;6.918;2024-03-07T03:51:14;102.00;;;73.00;;
31596;SDS011;74162;50.912;6.918;2024-03-07T03:51:46;100.93;;;72.63;;
31596;SDS011;74162;50.912;6.918;2024-03-07T03:52:19;102.63;;;73.93;;
31596;SDS011;74162;50.912;6.918;2024-03-07T03:52:51;102.03;;;73.57;;
31596;SDS011;74162;50.912;6.918;2024-03-07T03:53:23;99.40;;;70.90;;
31596;SDS011;74162;50.912;6.918;2024-03-07T03:53:55;99.68;;;71.80;;
31596;SDS011;74162;50.912;6.918;2024-03-07T03:54:27;105.03;;;73.43;;
31596;SDS011;74162;50.912;6.918;2024-03-07T03:54:59;105.00;;;75.90;;
31596;SDS011;74162;50.912;6.918;2024-03-07T03:55:31;103.03;;;73.28;;
31596;SDS011;74162;50.912;6.918;2024-03-07T03:56:04;106.22;;;75.78;;
31596;SDS011;74162;50.912;6.918;2024-03-07T03:56:37;102.35;;;73.50;;
31596;SDS011;74162;50.912;6.918;2024-03-07T03:57:09;101.60;;;74.47;;
31596;SDS011;74162;50.912;6.918;2024-03-07T03:57:44;101.78;;;75.38;;
31596;SDS011;74162;50.912;6.918;2024-03-07T03:58:16;98.60;;;73.47;;
31596;SDS011;74162;50.912;6.918;2024-03-07T03:58:48;98.00;;;73.50;;
31596;SDS011;74162;50.912;6.918;2024-03-07T03:59:20;97.38;;;72.68;;
31596;SDS011;74162;50.912;6.918;2024-03-07T03:59:52;101.53;;;75.75;;
31596;SDS011;74162;50.912;6.918;2024-03-07T04:00:24;98.90;;;74.75;;
31596;SDS011;74162;50.912;6.918;2024-03-07T04:00:56;100.50;;;74.65;;
31596;SDS011;74162;50.912;6.918;2024-03-07T04:01:28;99.05;;;75.00;;
31596;SDS011;74162;50.912;6.918;2024-03-07T04:02:00;99.28;;;73.75;;
31596;SDS011;74162;50.912;6.918;2024-03-07T04:02:32;99.55;;;76.18;;
31596;SDS011;74162;50.912;6.918;2024-03-07T04:03:04;98.45;;;74.72;;
31596;SDS011;74162;50.912;6.918;2024-03-07T04:03:36;95.38;;;73.97;;
31596;SDS011;74162;50.912;6.918;2024-03-07T04:04:08;103.35;;;78.25;;
31596;SDS011;74162;50.912;6.918;2024-03-07T04:04:39;102.70;;;76.22;;
31596;SDS011;74162;50.912;6.918;2024-03-07T04:05:11;101.88;;;77.90;;
31596;SDS011;74162;50.912;6.918;2024-03-07T04:05:44;102.15;;;77.13;;
31596;SDS011;74162;50.912;6.918;2024-03-07T04:06:16;98.00;;;77.30;;
31596;SDS011;74162;50.912;6.918;2024-03-07T04:06:48;101.78;;;78.65;;
31596;SDS011;74162;50.912;6.918;2024-03-07T04:07:19;99.55;;;76.60;;
31596;SDS011;74162;50.912;6.918;2024-03-07T04:07:51;101.45;;;77.38;;
31596;SDS011;74162;50.912;6.918;2024-03-07T04:08:23;94.65;;;76.47;;
31596;SDS011;74162;50.912;6.918;2024-03-07T04:08:55;94.97;;;77.47;;
31596;SDS011;74162;50.912;6.918;2024-03-07T04:09:27;99.78;;;77.50;;
31596;SDS011;74162;50.912;6.918;2024-03-07T04:09:59;97.60;;;75.70;;
31596;SDS011;74162;50.912;6.918;2024-03-07T04:10:31;95.53;;;73.97;;
31596;SDS011;74162;50.912;6.918;2024-03-07T04:11:05;97.57;;;74.00;;
31596;SDS011;74162;50.912;6.918;2024-03-07T04:11:37;100.43;;;75.53;;
31596;SDS011;74162;50.912;6.918;2024-03-07T04:12:36;102.20;;;73.70;;
31596;SDS011;74162;50.912;6.918;2024-03-07T04:13:09;96.63;;;72.95;;
31596;SDS011;74162;50.912;6.918;2024-03-07T04:13:41;98.90;;;71.00;;
31596;SDS011;74162;50.912;6.918;2024-03-07T04:14:16;95.30;;;68.90;;
31596;SDS011;74162;50.912;6.918;2024-03-07T04:14:48;95.85;;;69.22;;
31596;SDS011;74162;50.912;6.918;2024-03-07T04:15:20;98.55;;;70.65;;
31596;SDS011;74162;50.912;6.918;2024-03-07T04:15:52;99.20;;;70.30;;
31596;SDS011;74162;50.912;6.918;2024-03-07T04:16:24;97.38;;;68.82;;
31596;SDS011;74162;50.912;6.918;2024-03-07T04:16:56;101.22;;;70.75;;
31596;SDS011;74162;50.912;6.918;2024-03-07T04:17:28;98.60;;;69.35;;
31596;SDS011;74162;50.912;6.918;2024-03-07T04:18:00;95.60;;;68.10;;
31596;SDS011;74162;50.912;6.918;2024-03-07T04:18:31;93.45;;;68.38;;